Kuwait City, Kuwait
Current Conditions -  °F | °C
As of 10:00 AM on Saturday 29 Nov 2014 (Local Time) from OKBK Reporting Station
Clear Clear  
Wind Chill: 18°   Ceiling: Unl
Heat Index: 18°   Visibility: 6mi
Dew Point:   Wind: 14mph
Humidity: 45%   Direction: 350°N
Pressure: 30.21"   Gusts: NA
Location:  29.22°N, 47.98°E
Report Text: OKBK 290700Z 35012KT CAVOK 18/06 Q1023 NOSIG
Loading
Personal Weather Stations






























Interactive Weather Map New forecast layout! Learn more

10-Day Weather Forecast

Advertisements
Track Severe Weather on mobile